Time;durP1;ratioP1;P1;durP2;ratioP2;P2;SDS_P1;SDS_P2;PMS_P1;PMS_P2;Temp;Humidity;BMP_temperature;BMP_pressure;BME280_temperature;BME280_humidity;BME280_pressure;Samples;Min_cycle;Max_cycle;Signal;HPM_P1;HPM_P2
2022/05/21 00:00:42;;;;;;;8.45;5.75;;;;;;;14.36;70.84;100669.78;5053773;28;20056;-80
2022/05/21 00:03:11;;;;;;;8.50;5.95;;;;;;;14.40;71.45;100682.81;5058561;28;20060;-80
2022/05/21 00:05:39;;;;;;;9.10;5.78;;;;;;;14.39;70.82;100681.16;5073295;28;20059;-80
2022/05/21 00:08:09;;;;;;;8.27;5.15;;;;;;;14.39;68.95;100674.75;5073690;28;20056;-80
2022/05/21 00:10:38;;;;;;;8.80;6.68;;;;;;;14.33;71.02;100671.28;5073241;28;20044;-80
2022/05/21 00:13:06;;;;;;;9.80;6.50;;;;;;;14.27;69.40;100669.81;5073621;28;20072;-81
2022/05/21 00:15:36;;;;;;;9.60;6.53;;;;;;;14.32;69.89;100680.88;5073371;28;20057;-80
2022/05/21 00:18:06;;;;;;;8.05;6.68;;;;;;;14.24;69.86;100676.13;5073560;28;20052;-80
2022/05/21 00:20:48;;;;;;;8.88;7.22;;;;;;;14.18;70.93;100685.84;5073494;28;20048;-80
2022/05/21 00:23:20;;;;;;;10.45;7.10;;;;;;;14.19;70.79;100688.31;5073507;28;20053;-80
2022/05/21 00:25:49;;;;;;;10.18;6.95;;;;;;;14.10;69.69;100684.72;5073470;28;20056;-80
2022/05/21 00:28:17;;;;;;;9.95;6.97;;;;;;;14.19;72.31;100688.31;5073616;28;20056;-80
2022/05/21 00:30:45;;;;;;;11.10;7.75;;;;;;;14.20;71.66;100681.56;5072437;28;20067;-80
2022/05/21 00:33:15;;;;;;;10.77;6.68;;;;;;;14.25;70.71;100683.34;5073298;28;20392;-80
2022/05/21 00:35:42;;;;;;;7.68;6.85;;;;;;;14.26;70.64;100676.59;5073300;28;20052;-80
2022/05/21 00:38:11;;;;;;;10.38;8.10;;;;;;;14.30;71.11;100685.13;5073521;28;20056;-80
2022/05/21 00:40:39;;;;;;;10.27;8.20;;;;;;;14.27;72.01;100683.84;5073279;28;20048;-80
2022/05/21 00:43:07;;;;;;;9.90;8.43;;;;;;;14.34;71.32;100678.56;5073233;28;20063;-80
2022/05/21 00:45:35;;;;;;;9.20;8.25;;;;;;;14.37;70.82;100686.28;5073374;28;20056;-80
2022/05/21 00:48:02;;;;;;;11.95;9.13;;;;;;;14.43;71.07;100678.53;5073041;28;20052;-80
2022/05/21 00:50:31;;;;;;;10.02;9.02;;;;;;;14.47;71.94;100679.50;5073143;28;20508;-80
2022/05/21 00:53:00;;;;;;;11.57;9.45;;;;;;;14.57;72.67;100681.13;5073148;28;20052;-80
2022/05/21 00:55:31;;;;;;;12.65;10.00;;;;;;;14.66;71.64;100681.06;5072658;28;20419;-80
2022/05/21 01:00:46;;;;;;;11.98;9.52;;;;;;;14.43;70.07;100672.91;5078965;28;20502;-80
2022/05/21 01:03:18;;;;;;;13.18;10.80;;;;;;;14.46;71.12;100677.03;5072742;28;20056;-80
2022/05/21 01:05:48;;;;;;;12.82;10.73;;;;;;;14.40;70.54;100680.03;5072751;28;20053;-80
2022/05/21 01:08:16;;;;;;;12.55;10.73;;;;;;;14.49;70.45;100677.19;5073190;28;20052;-80
2022/05/21 01:10:47;;;;;;;11.70;10.43;;;;;;;14.40;70.62;100682.81;5072678;28;20048;-80
2022/05/21 01:13:20;;;;;;;11.07;9.93;;;;;;;14.37;70.67;100682.66;5072957;28;20052;-80
2022/05/21 01:15:51;;;;;;;15.38;11.95;;;;;;;14.31;71.47;100684.81;5072541;28;20056;-80
2022/05/21 01:18:18;;;;;;;12.23;10.50;;;;;;;14.27;70.79;100689.44;5073000;28;20052;-80
2022/05/21 01:20:53;;;;;;;14.07;11.82;;;;;;;14.12;71.04;100682.41;5072856;28;20060;-80
2022/05/21 01:23:22;;;;;;;15.35;11.35;;;;;;;14.00;71.60;100690.66;5075846;28;20048;-80
2022/05/21 01:25:50;;;;;;;14.57;11.48;;;;;;;13.89;71.50;100673.38;5076328;28;20064;-80
2022/05/21 01:28:21;;;;;;;14.95;12.02;;;;;;;13.91;72.47;100684.25;5076298;28;20048;-80
2022/05/21 01:30:51;;;;;;;15.50;11.07;;;;;;;13.83;72.19;100679.50;5075979;28;20059;-80
2022/05/21 01:33:22;;;;;;;13.65;10.05;;;;;;;13.75;71.74;100681.13;5075846;28;20049;-80
2022/05/21 01:35:50;;;;;;;13.80;10.32;;;;;;;13.63;71.85;100681.81;5076333;28;20052;-79
2022/05/21 01:38:22;;;;;;;13.23;10.95;;;;;;;13.55;72.91;100685.44;5075939;28;20075;-80
2022/05/21 01:40:50;;;;;;;15.02;10.60;;;;;;;13.45;73.33;100675.38;5075912;28;20054;-79
2022/05/21 01:46:02;;;;;;;13.68;10.82;;;;;;;13.31;74.50;100675.56;5082092;28;20052;-80
2022/05/21 01:48:32;;;;;;;12.40;9.77;;;;;;;13.30;74.03;100673.91;5076579;28;20048;-80
2022/05/21 01:50:59;;;;;;;12.23;10.30;;;;;;;13.27;74.79;100674.53;5075604;28;20056;-79
2022/05/21 01:53:28;;;;;;;14.27;10.93;;;;;;;13.23;74.84;100665.16;5076339;28;20045;-80
2022/05/21 01:55:58;;;;;;;13.25;10.48;;;;;;;13.22;75.11;100677.47;5075357;28;20052;-80
2022/05/21 01:58:26;;;;;;;12.90;10.35;;;;;;;13.26;74.96;100664.50;5076814;28;20052;-80
2022/05/21 02:00:54;;;;;;;12.10;10.20;;;;;;;13.27;75.43;100668.94;5075363;28;20052;-80
2022/05/21 02:03:22;;;;;;;13.93;9.68;;;;;;;13.23;74.63;100673.56;5075519;28;20405;-80
2022/05/21 02:05:50;;;;;;;10.70;9.32;;;;;;;13.15;74.46;100674.34;5075429;28;20526;-80
2022/05/21 02:08:21;;;;;;;14.10;9.55;;;;;;;13.13;74.08;100677.47;5076262;28;20388;-80
2022/05/21 02:10:51;;;;;;;12.55;8.80;;;;;;;13.08;74.81;100676.78;5081055;28;20405;-80
2022/05/21 02:13:19;;;;;;;;;;;;;;;13.11;74.12;100670.56;5076226;28;20404;-80
2022/05/21 02:15:46;;;;;;;10.82;7.68;;;;;;;13.10;74.23;100668.91;5075501;28;19921;-79
2022/05/21 02:18:14;;;;;;;8.35;6.60;;;;;;;13.13;73.88;100673.88;5075504;28;20056;-80
2022/05/21 02:20:41;;;;;;;10.45;7.30;;;;;;;13.06;74.17;100656.72;5075330;28;20048;-80
2022/05/21 02:23:10;;;;;;;8.48;6.93;;;;;;;13.17;75.25;100666.47;5075091;28;20060;-79
2022/05/21 02:25:38;;;;;;;11.48;7.00;;;;;;;13.19;75.42;100661.38;5075341;28;20057;-80
2022/05/21 02:28:07;;;;;;;8.52;6.25;;;;;;;13.28;74.73;100664.16;5075193;28;20063;-79
2022/05/21 02:30:36;;;;;;;6.88;4.90;;;;;;;13.32;73.21;100663.22;5075303;28;20067;-79
2022/05/21 02:33:03;;;;;;;9.52;5.78;;;;;;;13.38;73.55;100659.09;5074207;28;20048;-80
2022/05/21 02:35:31;;;;;;;9.00;5.10;;;;;;;13.45;73.27;100663.38;5074984;28;20052;-80
2022/05/21 02:40:51;;;;;;;9.32;5.30;;;;;;;13.51;73.59;100650.88;5050885;28;20064;-80
2022/05/21 02:43:23;;;;;;;9.32;5.00;;;;;;;13.56;73.34;100653.50;5074777;28;20366;-80
2022/05/21 02:45:51;;;;;;;8.30;5.18;;;;;;;13.60;72.16;100655.28;5081188;28;20048;-80
2022/05/21 02:48:22;;;;;;;7.15;5.05;;;;;;;13.59;72.94;100644.44;5075479;28;20056;-81
2022/05/21 02:50:50;;;;;;;8.15;5.10;;;;;;;13.60;72.74;100646.09;5074713;28;20472;-80
2022/05/21 02:53:21;;;;;;;8.48;4.60;;;;;;;13.65;72.51;100642.28;5074829;28;20048;-80
2022/05/21 02:55:51;;;;;;;7.38;4.88;;;;;;;13.68;72.40;100645.25;5080701;28;20056;-80
2022/05/21 02:58:20;;;;;;;10.75;5.93;;;;;;;13.73;72.42;100645.09;5074697;28;20060;-80
2022/05/21 03:00:50;;;;;;;;;;;;;;;13.75;71.67;100641.94;5075209;28;20055;-81
2022/05/21 03:03:17;;;;;;;7.88;5.53;;;;;;;13.73;71.17;100642.28;5074037;28;19920;-80
2022/05/21 03:05:45;;;;;;;8.07;6.47;;;;;;;13.64;71.39;100643.44;5074212;28;20060;-81
2022/05/21 03:10:57;;;;;;;8.88;5.50;;;;;;;13.77;71.43;100639.63;5080106;28;20051;-80
2022/05/21 03:13:26;;;;;;;11.23;6.50;;;;;;;13.74;72.01;100638.31;5074195;28;20603;-80
2022/05/21 03:15:57;;;;;;;10.38;5.50;;;;;;;13.73;72.17;100641.44;5074036;28;20048;-81
2022/05/21 03:18:24;;;;;;;10.98;5.95;;;;;;;13.81;71.87;100644.22;5074507;28;20052;-80
2022/05/21 03:20:53;;;;;;;10.02;5.95;;;;;;;13.89;71.39;100650.16;5073850;28;20389;-80
2022/05/21 03:23:20;;;;;;;10.60;6.32;;;;;;;13.78;71.20;100642.13;5074346;28;20048;-80
2022/05/21 03:25:48;;;;;;;8.00;6.20;;;;;;;13.85;71.48;100644.41;5074109;28;20056;-81
2022/05/21 03:28:17;;;;;;;10.05;5.85;;;;;;;13.89;71.91;100650.16;5074322;28;20052;-81
2022/05/21 03:30:45;;;;;;;11.80;7.30;;;;;;;13.89;71.04;100644.56;5074069;28;20059;-81
2022/05/21 03:33:14;;;;;;;9.77;6.25;;;;;;;13.91;71.52;100653.47;5073981;28;20060;-81
2022/05/21 03:35:42;;;;;;;9.88;6.15;;;;;;;13.95;70.91;100646.84;5074181;28;20049;-81
2022/05/21 03:38:10;;;;;;;9.43;6.72;;;;;;;13.92;71.41;100663.50;5073910;28;20067;-80
2022/05/21 03:40:38;;;;;;;9.23;5.70;;;;;;;14.01;70.54;100653.09;5074034;28;20052;-80
2022/05/21 03:43:05;;;;;;;12.85;7.07;;;;;;;14.00;70.70;100668.25;5073798;28;20056;-80
2022/05/21 03:45:33;;;;;;;11.55;6.70;;;;;;;13.96;70.31;100661.66;5073320;28;20408;-80
2022/05/21 03:48:00;;;;;;;8.75;6.82;;;;;;;13.86;71.39;100676.00;5073346;28;20075;-80
2022/05/21 03:50:32;;;;;;;8.95;6.57;;;;;;;13.81;71.69;100669.44;5073536;28;20052;-80
2022/05/21 03:53:00;;;;;;;10.52;6.35;;;;;;;13.85;71.40;100665.97;5073460;28;20048;-80
2022/05/21 03:55:27;;;;;;;7.70;5.47;;;;;;;13.81;71.64;100663.00;5073125;28;20052;-80
2022/05/21 03:57:55;;;;;;;9.82;6.28;;;;;;;13.87;71.56;100658.06;5073763;28;20056;-80
2022/05/21 04:00:22;;;;;;;8.32;5.93;;;;;;;13.92;72.59;100664.34;5073832;28;20056;-80
2022/05/21 04:02:49;;;;;;;11.95;6.68;;;;;;;13.88;71.31;100668.09;5072922;28;20052;-81
2022/05/21 04:05:17;;;;;;;13.30;6.90;;;;;;;13.98;71.27;100671.41;5073243;28;20055;-81
2022/05/21 04:07:46;;;;;;;10.45;7.22;;;;;;;14.04;71.26;100671.22;5073488;28;20052;-80
2022/05/21 04:10:16;;;;;;;11.53;8.30;;;;;;;14.01;70.79;100673.53;5073078;28;20067;-80
2022/05/21 04:12:43;;;;;;;9.73;7.55;;;;;;;13.96;71.17;100672.88;5073171;28;20052;-80
2022/05/21 04:15:12;;;;;;;9.57;7.35;;;;;;;14.01;71.45;100681.13;5072939;28;20412;-80
2022/05/21 04:17:39;;;;;;;11.18;7.60;;;;;;;14.05;72.35;100673.69;5073463;28;20052;-80
2022/05/21 04:20:11;;;;;;;12.52;8.38;;;;;;;13.94;71.31;100677.97;5072799;28;20056;-80
2022/05/21 04:22:39;;;;;;;12.35;8.63;;;;;;;14.02;71.11;100688.34;5078926;28;20052;-80
2022/05/21 04:25:10;;;;;;;15.48;9.93;;;;;;;14.04;72.14;100680.44;5073031;28;20393;-81
2022/05/21 04:27:39;;;;;;;13.15;9.82;;;;;;;14.12;71.05;100693.59;5072993;28;20075;-80
2022/05/21 04:30:09;;;;;;;13.23;9.87;;;;;;;14.03;71.16;100692.81;5073120;28;20057;-80
2022/05/21 04:32:37;;;;;;;13.23;9.70;;;;;;;14.05;71.66;100682.09;5072656;28;20486;-80
2022/05/21 04:35:06;;;;;;;13.93;9.05;;;;;;;14.12;71.32;100688.00;5072832;28;20048;-80
2022/05/21 04:37:36;;;;;;;13.18;9.02;;;;;;;14.02;71.09;100689.16;5073267;28;20056;-80
2022/05/21 04:40:04;;;;;;;13.95;9.35;;;;;;;13.92;71.43;100678.34;5072784;28;20669;-80
2022/05/21 04:42:33;;;;;;;12.50;8.23;;;;;;;14.02;71.49;100691.16;5073153;28;20053;-81
2022/05/21 04:45:00;;;;;;;12.88;8.88;;;;;;;13.92;71.50;100694.28;5072721;28;20059;-80
2022/05/21 04:47:27;;;;;;;13.43;8.50;;;;;;;13.92;71.87;100686.75;5072795;28;20071;-80
2022/05/21 04:49:55;;;;;;;15.10;8.85;;;;;;;13.96;72.86;100690.53;5073432;28;20059;-81
2022/05/21 04:52:22;;;;;;;11.82;8.15;;;;;;;13.97;71.90;100696.94;5072630;28;20499;-80
2022/05/21 04:54:49;;;;;;;15.27;8.88;;;;;;;13.94;72.00;100698.44;5073334;28;20468;-80
2022/05/21 04:57:16;;;;;;;13.82;8.65;;;;;;;13.90;72.71;100699.41;5076904;28;20057;-80
2022/05/21 04:59:46;;;;;;;14.80;8.55;;;;;;;13.93;72.58;100698.75;5077372;28;20047;-81
2022/05/21 05:02:14;;;;;;;12.10;8.88;;;;;;;13.87;72.50;100706.50;5076632;28;20525;-80
2022/05/21 05:04:41;;;;;;;13.25;7.60;;;;;;;13.81;72.95;100705.81;5075975;28;20063;-80
2022/05/21 05:07:09;;;;;;;12.15;7.32;;;;;;;13.83;73.47;100704.69;5076730;28;20499;-80
2022/05/21 05:09:39;;;;;;;10.63;7.65;;;;;;;13.78;73.32;100711.28;5077182;28;20052;-80
2022/05/21 05:12:08;;;;;;;10.85;7.35;;;;;;;13.78;73.30;100716.88;5076606;28;20052;-81
2022/05/21 05:14:36;;;;;;;11.70;7.50;;;;;;;13.85;73.19;100706.00;5077021;28;20051;-80
2022/05/21 05:17:06;;;;;;;11.70;7.13;;;;;;;13.76;73.26;100717.22;5076623;28;20044;-80
2022/05/21 05:19:34;;;;;;;14.13;6.93;;;;;;;13.84;73.64;100720.31;5076079;28;20377;-79
2022/05/21 05:22:02;;;;;;;11.82;7.55;;;;;;;13.84;72.81;100723.13;5076557;28;20595;-80
2022/05/21 05:24:29;;;;;;;9.95;6.60;;;;;;;13.91;73.15;100726.25;5076318;28;20055;-80
2022/05/21 05:26:57;;;;;;;10.63;6.80;;;;;;;13.88;73.17;100733.34;5076501;28;20504;-80
2022/05/21 05:29:24;;;;;;;11.50;6.65;;;;;;;13.88;73.67;100716.56;5076882;28;20052;-80
2022/05/21 05:31:51;;;;;;;10.27;8.10;;;;;;;13.92;72.62;100728.75;5076147;28;20052;-80
2022/05/21 05:34:20;;;;;;;10.00;6.93;;;;;;;13.90;72.96;100724.59;5076385;28;20049;-80
2022/05/21 05:36:48;;;;;;;11.95;6.88;;;;;;;13.83;73.00;100730.69;5076163;28;20408;-80
2022/05/21 05:39:16;;;;;;;9.98;6.82;;;;;;;13.91;73.39;100729.06;5076165;28;20053;-80
2022/05/21 05:41:43;;;;;;;9.63;6.47;;;;;;;13.90;74.92;100733.84;5076564;28;20068;-80
2022/05/21 05:44:11;;;;;;;10.40;7.38;;;;;;;13.95;73.79;100732.84;5076054;28;20071;-80
2022/05/21 05:46:40;;;;;;;14.80;7.60;;;;;;;13.95;74.27;100732.84;5075374;28;20417;-80
2022/05/21 05:49:08;;;;;;;;;;;;;;;13.90;74.55;100741.41;5076512;28;20127;-80
2022/05/21 05:51:37;;;;;;;13.27;8.02;;;;;;;13.83;74.36;100721.50;5075973;28;19928;-80
2022/05/21 05:54:05;;;;;;;12.15;8.68;;;;;;;13.86;73.88;100724.47;5075805;28;20052;-79
2022/05/21 05:56:32;;;;;;;10.90;7.78;;;;;;;13.99;73.64;100715.03;5075485;28;20052;-80
2022/05/21 06:01:44;;;;;;;11.38;7.68;;;;;;;14.23;73.99;100715.66;5075864;28;20511;-80
2022/05/21 06:04:12;;;;;;;10.52;8.23;;;;;;;14.29;73.20;100719.94;5075269;28;20524;-79
2022/05/21 06:06:40;;;;;;;12.65;8.15;;;;;;;14.54;72.88;100721.84;5075923;28;20492;-80
2022/05/21 06:09:08;;;;;;;13.57;8.80;;;;;;;14.67;70.75;100724.78;5074880;28;20064;-80
2022/05/21 06:11:38;;;;;;;12.18;8.60;;;;;;;14.60;70.09;100730.91;5075629;28;20060;-80
2022/05/21 06:14:05;;;;;;;15.07;8.27;;;;;;;14.72;70.49;100733.00;5074739;28;20055;-80
2022/05/21 06:16:33;;;;;;;11.18;7.60;;;;;;;14.80;69.10;100730.19;5075614;28;20504;-80
2022/05/21 06:19:00;;;;;;;13.82;7.40;;;;;;;14.85;70.51;100737.59;5075268;28;20063;-81
2022/05/21 06:21:28;;;;;;;13.18;7.35;;;;;;;14.79;69.13;100741.72;5075504;28;20431;-79
2022/05/21 06:23:56;;;;;;;14.35;8.35;;;;;;;14.76;68.67;100739.59;5075939;28;20055;-80
2022/05/21 06:26:24;;;;;;;13.10;6.60;;;;;;;14.91;69.35;100741.84;5075519;28;20051;-80
2022/05/21 06:28:51;;;;;;;9.25;6.18;;;;;;;15.06;68.38;100743.25;5075989;28;20059;-80
2022/05/21 06:31:19;;;;;;;9.50;6.68;;;;;;;14.99;66.74;100740.13;5074839;28;20057;-80
2022/05/21 06:33:46;;;;;;;10.25;6.03;;;;;;;15.03;67.62;100741.09;5075554;28;20056;-80
2022/05/21 06:36:16;;;;;;;10.70;6.18;;;;;;;15.31;68.68;100744.25;5075149;28;20060;-81
2022/05/21 06:38:44;;;;;;;;;;;;;;;15.61;65.42;100747.03;5075736;28;20052;-81
2022/05/21 06:41:13;;;;;;;9.75;5.95;;;;;;;15.84;64.94;100741.91;5074782;28;19928;-81
2022/05/21 06:43:40;;;;;;;9.55;5.95;;;;;;;15.93;63.13;100748.28;5075091;28;20048;-81
2022/05/21 06:46:08;;;;;;;9.15;4.93;;;;;;;16.18;62.79;100746.38;5074422;28;20060;-81
2022/05/21 06:48:35;;;;;;;9.27;5.47;;;;;;;16.42;62.99;100745.66;5074822;28;20057;-81
2022/05/21 06:51:05;;;;;;;11.23;5.40;;;;;;;16.68;61.55;100732.47;5074865;28;20523;-81
2022/05/21 06:53:37;;;;;;;6.72;5.18;;;;;;;16.87;61.35;100741.19;5074784;28;20439;-81
2022/05/21 06:56:08;;;;;;;8.23;4.90;;;;;;;16.84;59.51;100747.53;5074570;28;20060;-82
2022/05/21 06:58:38;;;;;;;7.65;5.05;;;;;;;16.79;60.75;100745.69;5075016;28;20055;-81
2022/05/21 07:01:05;;;;;;;;;;;;;;;16.71;59.55;100745.81;5075681;28;20067;-81
2022/05/21 07:03:35;;;;;;;9.40;5.45;;;;;;;16.56;59.83;100736.88;5074149;28;19921;-81
2022/05/21 07:08:51;;;;;;;9.27;5.50;;;;;;;16.38;60.80;100749.50;5077923;28;20059;-81
2022/05/21 07:11:19;;;;;;;10.23;5.80;;;;;;;16.34;61.18;100746.56;5075314;28;20480;-81
2022/05/21 07:14:16;;;;;;;10.15;6.07;;;;;;;16.36;59.99;100752.66;5074567;28;20071;-82
2022/05/21 07:16:53;;;;;;;14.73;6.40;;;;;;;16.39;59.94;100753.94;5074628;28;20063;-80
2022/05/21 07:19:20;;;;;;;10.73;5.72;;;;;;;16.45;59.80;100758.19;5074698;28;20056;-81
2022/05/21 07:21:50;;;;;;;8.88;6.20;;;;;;;16.39;60.15;100743.53;5074944;28;20052;-80
2022/05/21 07:24:17;;;;;;;12.02;6.28;;;;;;;16.34;60.21;100759.81;5074901;28;20048;-81
2022/05/21 07:26:47;;;;;;;10.20;6.10;;;;;;;16.39;60.53;100756.75;5074897;28;20052;-81
2022/05/21 07:29:16;;;;;;;9.23;6.13;;;;;;;16.57;60.09;100761.03;5074601;28;20063;-80
2022/05/21 07:31:44;;;;;;;7.60;5.45;;;;;;;16.62;59.56;100762.78;5074330;28;20049;-80
2022/05/21 07:34:11;;;;;;;13.52;6.82;;;;;;;16.71;58.82;100766.31;5075103;28;20045;-80
2022/05/21 07:36:38;;;;;;;8.50;5.47;;;;;;;16.64;59.67;100769.72;5074594;28;20040;-81
2022/05/21 07:39:07;;;;;;;9.82;6.43;;;;;;;16.67;59.43;100773.00;5075680;28;20064;-81
2022/05/21 07:41:36;;;;;;;9.50;5.70;;;;;;;16.70;58.88;100792.81;5074637;28;20057;-81
2022/05/21 07:44:04;;;;;;;9.07;5.97;;;;;;;16.72;58.57;100776.41;5075146;28;20056;-81
2022/05/21 07:46:34;;;;;;;9.13;5.50;;;;;;;16.74;58.66;100771.25;5074608;28;20048;-81
2022/05/21 07:49:05;;;;;;;13.65;5.88;;;;;;;16.77;59.44;100778.16;5075061;28;20055;-81
2022/05/21 07:51:33;;;;;;;9.15;5.40;;;;;;;16.64;58.97;100775.34;5080479;28;20044;-81
2022/05/21 07:54:04;;;;;;;8.52;5.63;;;;;;;16.69;59.00;100790.34;5073906;28;20056;-81
2022/05/21 07:56:37;;;;;;;10.15;6.03;;;;;;;16.70;59.11;100781.56;5074163;28;20531;-81
2022/05/21 07:59:04;;;;;;;8.88;5.20;;;;;;;16.69;59.50;100787.53;5076468;28;20055;-82
2022/05/21 08:01:34;;;;;;;11.95;5.78;;;;;;;16.82;59.36;100781.63;5073977;28;20048;-81
2022/05/21 08:04:01;;;;;;;9.02;5.35;;;;;;;16.86;58.34;100781.72;5073484;28;20417;-81
2022/05/21 08:06:29;;;;;;;8.90;5.25;;;;;;;16.92;58.78;100777.50;5073521;28;20049;-81
2022/05/21 08:08:57;;;;;;;12.40;6.07;;;;;;;17.04;58.21;100785.16;5073664;28;20071;-81
2022/05/21 08:11:24;;;;;;;9.90;6.13;;;;;;;17.01;57.81;100795.13;5073870;28;20056;-81
2022/05/21 08:13:52;;;;;;;9.65;5.45;;;;;;;16.94;57.58;100797.69;5073663;28;20055;-82
2022/05/21 08:16:20;;;;;;;11.48;5.53;;;;;;;16.90;58.62;100791.09;5073361;28;20512;-81
2022/05/21 08:18:51;;;;;;;10.07;5.40;;;;;;;16.98;58.35;100801.44;5074073;28;20056;-81
2022/05/21 08:21:18;;;;;;;11.77;6.40;;;;;;;16.99;58.35;100811.53;5079540;28;20055;-81
2022/05/21 08:29:20;;;;;;;10.38;6.88;;;;;;;16.98;58.35;100815.50;5073210;28;20059;-82
2022/05/21 08:31:52;;;;;;;12.65;6.75;;;;;;;16.93;59.06;100812.13;5073627;28;20048;-80
2022/05/21 08:34:21;;;;;;;10.18;5.70;;;;;;;16.96;58.46;100812.22;5073949;28;20049;-81
2022/05/21 08:37:25;;;;;;;15.40;6.65;;;;;;;16.93;58.88;100821.38;5074492;28;20060;-80
2022/05/21 08:39:52;;;;;;;11.68;6.35;;;;;;;16.83;60.74;100825.44;5070830;28;20049;-81
2022/05/21 08:42:29;;;;;;;12.65;5.90;;;;;;;16.79;60.69;100843.34;5073445;28;20048;-80
2022/05/21 08:45:17;;;;;;;12.23;6.22;;;;;;;16.92;59.82;100835.78;5073248;28;20488;-81
2022/05/21 08:47:48;;;;;;;11.73;5.45;;;;;;;16.79;59.78;100837.72;5072747;28;20048;-81
2022/05/21 08:50:21;;;;;;;10.13;5.18;;;;;;;16.82;59.61;100840.69;5073499;28;20049;-81
2022/05/21 08:53:02;;;;;;;12.13;6.28;;;;;;;16.83;59.19;100833.06;5073493;28;20075;-81
2022/05/21 08:55:35;;;;;;;11.32;6.50;;;;;;;16.80;59.58;100833.75;5072451;28;20053;-81
2022/05/21 08:58:14;;;;;;;10.32;5.97;;;;;;;16.73;60.74;100841.94;5073376;28;20049;-80
2022/05/21 09:00:47;;;;;;;8.27;4.82;;;;;;;16.80;60.25;100831.78;5072568;28;20060;-81
2022/05/21 09:03:18;;;;;;;9.32;5.13;;;;;;;16.85;60.32;100839.19;5072089;28;20057;-80
2022/05/21 09:06:27;;;;;;;14.63;6.13;;;;;;;16.88;59.86;100837.66;5053172;28;20417;-80
2022/05/21 09:09:02;;;;;;;11.98;5.70;;;;;;;17.17;58.77;100842.28;5052647;28;20049;-81
2022/05/21 09:11:35;;;;;;;9.90;5.38;;;;;;;17.29;58.55;100841.47;5052301;28;20064;-81
2022/05/21 09:14:13;;;;;;;10.32;5.65;;;;;;;17.75;57.56;100847.81;5052851;28;20052;-81
2022/05/21 09:17:00;;;;;;;10.75;5.18;;;;;;;18.09;56.11;100840.00;5052921;28;20667;-81
2022/05/21 09:19:33;;;;;;;8.40;4.55;;;;;;;18.11;55.57;100838.47;5052979;28;20386;-81
2022/05/21 09:22:04;;;;;;;8.23;4.57;;;;;;;18.19;55.83;100850.78;5052668;28;20063;-81
2022/05/21 09:24:41;;;;;;;10.02;4.97;;;;;;;18.15;55.66;100845.03;5052744;28;20057;-81
2022/05/21 09:27:32;;;;;;;12.35;6.07;;;;;;;18.17;55.05;100853.97;5052703;28;20049;-81
2022/05/21 09:30:18;;;;;;;9.48;5.55;;;;;;;17.96;55.18;100847.69;5052994;28;20060;-82
2022/05/21 09:32:51;;;;;;;8.35;5.25;;;;;;;17.77;54.54;100865.97;5053342;28;20401;-81
2022/05/21 09:35:21;;;;;;;9.27;5.65;;;;;;;17.59;55.90;100856.94;5052476;28;20061;-81
2022/05/21 09:37:50;;;;;;;;;;;;;;;17.54;56.30;100862.03;5053304;28;20059;-80
2022/05/21 09:40:39;;;;;;;10.43;5.22;;;;;;;17.60;55.38;100858.59;5052408;28;19920;-80
2022/05/21 09:46:20;;;;;;;8.68;5.13;;;;;;;17.57;56.28;100852.84;5060968;28;20080;-80
2022/05/21 09:48:49;;;;;;;10.90;5.47;;;;;;;17.84;56.10;100856.97;5056108;28;20049;-80
2022/05/21 09:54:54;;;;;;;9.90;5.60;;;;;;;18.50;54.05;100858.56;5014222;28;20053;-82
2022/05/21 10:00:25;;;;;;;8.70;5.10;;;;;;;18.62;53.36;100864.13;5056673;28;21183;-82
2022/05/21 10:02:58;;;;;;;12.70;5.43;;;;;;;19.63;51.48;100849.81;5074986;28;20053;-82
2022/05/21 10:11:23;;;;;;;7.38;4.40;;;;;;;20.36;49.01;100853.91;5076868;28;20404;-82
2022/05/21 10:13:55;;;;;;;11.30;5.07;;;;;;;20.37;49.46;100847.09;5076047;28;20056;-81
2022/05/21 10:16:31;;;;;;;7.80;4.40;;;;;;;20.44;49.16;100850.06;5074907;28;20441;-81
2022/05/21 10:19:05;;;;;;;10.40;5.28;;;;;;;20.73;48.61;100849.84;5075560;28;20063;-82
2022/05/21 10:21:49;;;;;;;8.52;4.63;;;;;;;21.14;46.83;100861.53;5075078;28;20060;-81
2022/05/21 10:27:54;;;;;;;6.13;4.65;;;;;;;23.47;42.06;100837.03;5079556;28;20169;-82
2022/05/21 10:30:26;;;;;;;7.20;4.53;;;;;;;25.77;38.06;100832.16;5075168;28;20045;-82
2022/05/21 10:33:31;;;;;;;7.93;3.97;;;;;;;27.02;33.99;100827.16;5075244;28;20053;-82
2022/05/21 10:36:14;;;;;;;6.70;3.70;;;;;;;28.57;32.00;100818.69;5075559;28;20060;-81
2022/05/21 10:38:54;;;;;;;6.80;3.30;;;;;;;29.92;30.01;100822.66;5075320;28;20064;-80
2022/05/21 10:41:42;;;;;;;10.25;4.03;;;;;;;30.04;28.13;100815.44;5074744;28;20068;-81
2022/05/21 10:44:21;;;;;;;7.17;4.13;;;;;;;30.34;27.42;100832.50;5080851;28;20052;-83
2022/05/21 10:47:02;;;;;;;8.32;3.40;;;;;;;30.63;27.91;100822.44;5075225;28;20466;-82
2022/05/21 10:50:10;;;;;;;7.07;4.13;;;;;;;30.81;26.72;100814.22;5074131;28;20060;-80
2022/05/21 10:52:53;;;;;;;6.97;3.42;;;;;;;30.63;27.00;100813.81;5073955;28;20067;-83
2022/05/21 10:55:27;;;;;;;8.77;3.90;;;;;;;30.03;27.88;100825.31;5074693;28;20060;-81
2022/05/21 10:58:13;;;;;;;5.57;3.17;;;;;;;30.52;27.76;100848.56;5080598;28;20056;-81
2022/05/21 11:00:50;;;;;;;6.10;3.63;;;;;;;31.27;26.33;100811.50;5074413;28;20059;-81
2022/05/21 11:03:41;;;;;;;7.13;3.60;;;;;;;31.88;25.27;100821.44;5074407;28;20053;-81
2022/05/21 11:06:19;;;;;;;5.85;3.90;;;;;;;32.97;23.96;100812.84;5060352;28;20057;-81
2022/05/21 11:08:56;;;;;;;;;;;;;;;33.57;22.88;100809.19;5054708;28;20069;-81
2022/05/21 11:11:33;;;;;;;7.72;3.85;;;;;;;32.69;24.18;100819.53;5054223;28;19921;-81
2022/05/21 11:14:09;;;;;;;7.97;3.92;;;;;;;31.84;24.69;100817.84;5054461;28;20064;-81
2022/05/21 11:16:42;;;;;;;5.57;3.40;;;;;;;31.80;24.68;100817.16;5053965;28;20060;-81
2022/05/21 11:19:16;;;;;;;7.95;3.63;;;;;;;30.55;25.91;100818.91;5054058;28;20052;-81
2022/05/21 11:21:48;;;;;;;5.05;3.13;;;;;;;30.01;27.43;100817.16;5054030;28;20060;-81
2022/05/21 11:24:21;;;;;;;7.97;4.13;;;;;;;28.39;28.07;100815.19;5054089;28;20067;-81
2022/05/21 11:26:58;;;;;;;7.78;3.50;;;;;;;27.92;29.61;100818.63;5053992;28;20064;-81
2022/05/21 11:29:36;;;;;;;7.78;4.03;;;;;;;27.41;30.05;100820.34;5053484;28;20396;-81
2022/05/21 11:37:50;;;;;;;4.32;2.90;;;;;;;25.94;32.86;100821.13;5059902;28;20059;-81
2022/05/21 11:47:33;;;;;;;7.93;3.45;;;;;;;24.00;34.66;100812.22;5048103;28;20060;-81
2022/05/21 11:50:19;;;;;;;6.22;3.33;;;;;;;24.27;34.92;100807.91;5053802;28;20394;-80
2022/05/21 11:52:54;;;;;;;6.43;3.30;;;;;;;24.19;34.46;100800.53;5054046;28;20417;-81
2022/05/21 11:55:24;;;;;;;8.75;3.40;;;;;;;23.83;36.96;100806.06;5053852;28;20094;-81
2022/05/21 11:57:54;;;;;;;7.10;3.70;;;;;;;23.30;36.32;100810.09;5054650;28;20057;-81
2022/05/21 12:00:50;;;;;;;13.70;3.35;;;;;;;22.94;37.57;100816.66;5053450;28;20152;-80
2022/05/21 12:03:47;;;;;;;6.00;3.47;;;;;;;22.67;38.24;100826.09;5053926;28;20136;-81
2022/05/21 12:06:34;;;;;;;5.60;3.00;;;;;;;22.68;38.89;100815.59;5052250;28;20056;-81
2022/05/21 12:09:23;;;;;;;8.45;3.53;;;;;;;23.18;38.55;100833.16;5054726;28;20076;-80
2022/05/21 12:12:09;;;;;;;6.97;3.65;;;;;;;23.42;37.95;100823.19;5059797;28;20067;-81
2022/05/21 12:14:52;;;;;;;8.00;3.38;;;;;;;23.34;38.12;100818.66;5053559;28;20056;-81
2022/05/21 12:17:44;;;;;;;5.50;3.42;;;;;;;23.33;37.47;100822.72;5053332;28;20049;-81
2022/05/21 12:20:14;;;;;;;6.85;3.33;;;;;;;22.98;37.34;100831.72;5053794;28;20067;-81
2022/05/21 12:22:52;;;;;;;6.43;3.50;;;;;;;22.88;38.26;100825.53;5053576;28;20517;-81
2022/05/21 12:26:00;;;;;;;7.25;3.88;;;;;;;23.01;38.87;100831.75;5053921;28;20082;-81
2022/05/21 12:28:47;;;;;;;5.93;3.30;;;;;;;23.37;37.92;100817.06;5052857;28;20061;-81
2022/05/21 12:31:27;;;;;;;8.43;3.70;;;;;;;23.79;36.58;100822.28;5054053;28;20195;-81
2022/05/21 12:34:16;;;;;;;6.30;3.70;;;;;;;24.03;35.63;100819.97;5052984;28;20057;-81
2022/05/21 12:37:03;;;;;;;8.63;3.95;;;;;;;25.42;34.14;100813.84;5053005;28;20071;-81